Home > Products > Valid Products > TAF

000
FTUS46 KSTO 260500
TAFRBL
TAF
KRBL 260539Z 2606/2706 VRB04KT P6SM SKC
     FM261200 VRB03KT 1SM BR BKN004
      TEMPO 2614/2617 1/4SM FG OVC001
     FM261900 34008KT P6SM SCT250=



000
FTUS46 KSTO 260500
TAFSMF
TAF
KSMF 260539Z 2606/2706 15005KT 4SM BR BKN250
     FM261200 00000KT 1/4SM FG VV001
     FM261900 VRB04KT 2SM BR BKN004 BKN250
     FM262100 VRB04KT 5SM HZ OVC250=



000
FTUS46 KSTO 260500
TAFSCK
TAF
KSCK 260539Z 2606/2706 12004KT 5SM BR BKN250
     FM260900 00000KT 1 1/2SM BR SCT004 BKN250
      TEMPO 2609/2613 1/4SM FG OVC001
     FM261300 12003KT 1/4SM FG VV001
     FM261800 00000KT 1/2SM FG OVC003
     FM261900 00000KT 2SM BR OVC004
     FM262300 VRB03KT 4SM HZ OVC150=



000
FTUS46 KSTO 260500
TAFRDD
TAF
KRDD 260539Z 2606/2706 VRB03KT P6SM SKC
     FM261500 00000KT 5SM BR SCT005
     FM261900 VRB03KT P6SM SCT250=



000
FTUS46 KSTO 260500
TAFSAC
TAF
KSAC 260539Z 2606/2706 VRB03KT 4SM BR BKN250
     FM261200 00000KT 1/4SM FG VV001
     FM261900 VRB04KT 2SM BR BKN004 BKN250
     FM262100 VRB04KT 5SM HZ OVC250=



000
FTUS46 KSTO 260500
TAFMHR
TAF
KMHR 260539Z 2606/2706 00000KT 4SM BR BKN250
     FM261200 00000KT 1/4SM FG VV001
     FM261900 VRB04KT 2SM BR SCT005 BKN250
     FM262100 VRB04KT 5SM HZ OVC250
      AMD NOT SKED=



000
FTUS46 KSTO 252300
TAFSMF
TAF
KSMF 252337Z 2600/2624 VRB03KT P6SM SKC
     FM260300 00000KT 4SM BR SKC
     FM260800 VRB03KT 1/2SM FG SKC
     FM261200 34003KT 1/4SM FG VV001
     FM261900 34004KT 2SM BR FEW250
     FM262100 33005KT 6SM HZ OVC250=



000
FTUS46 KSTO 252300
TAFRBL
TAF
KRBL 252329Z 2600/2624 VRB04KT P6SM SKC
     FM260400 32003KT 6SM BR SKC
     FM260600 VRB04KT 1/2SM FG SKC
     FM260900 31006KT 1/4SM FG OVC001
     FM261600 36005KT 6SM BR SKC
     FM262100 33005KT P6SM SKC=



000
FTUS46 KSTO 252300
TAFSMF
TAF
KSMF 252329Z 2600/2624 VRB03KT P6SM SKC
     FM260300 00000KT 4SM BR SKC
     FM260800 VRB03KT 1/2SM FG SKC
     FM261200 34003KT 1/4SM FG VV001
     FM261900 34005KT 2SM BR FEW250=



000
FTUS46 KSTO 252300
TAFRDD
TAF
KRDD 252329Z 2600/2624 14005KT P6SM FEW250
     FM261500 00000KT 6SM HZ SKC=



000
FTUS46 KSTO 252300
TAFSAC
TAF
KSAC 252329Z 2600/2624 VRB04KT P6SM SKC
     FM260200 VRB02KT 4SM BR SKC
     FM260600 VRB03KT 2SM BR BKN003
     FM260900 VRB02KT 1/2SM FG OVC001
     FM261400 00000KT 1/4SM FG VV001
     FM261900 33005KT 2SM BR FEW250
     FM262100 30003KT 6SM HZ OVC250=



000
FTUS46 KSTO 252300
TAFSCK
TAF
KSCK 252329Z 2600/2624 23003KT 5SM HZ FEW010
     FM260100 12005KT 4SM HZ SCT010
     FM260300 VRB03KT 2SM BR OVC005
     FM260900 00000KT 1/2SM FG OVC004
     FM261400 12003KT 1/4SM FG VV001
     FM261800 00000KT 1/2SM FG OVC003
     FM261900 00000KT 2SM BR OVC004=



000
FTUS46 KSTO 252300
TAFMHR
TAF
KMHR 252329Z 2600/2624 34004KT P6SM SKC
     FM260300 VRB02KT 5SM HZ SKC
     FM260600 VRB03KT 1SM BR SKC
     FM260800 00000KT 1/2SM FG BKN003
     FM261100 00000KT 1/4SM FG VV001
     FM261800 33003KT 1/2SM FG SKC
     FM262100 VRB02KT 4SM BR BKN250
     FM262200 30003KT 6SM HZ OVC250=



000
FTUS46 KSTO 252100 AAC
TAFSMF
TAF AMD
KSMF 252125Z 2521/2618 00000KT 5SM BR SCT006
     FM252200 VRB03KT P6SM SKC
     FM260300 00000KT 4SM BR SKC
     FM260800 VRB03KT 1/2SM FG SKC
     FM261200 34003KT 1/4SM FG VV001=



000
FTUS46 KSTO 252100 AAA
TAFSCK
TAF AMD
KSCK 252117Z 2521/2618 12003KT 5SM HZ FEW010
     FM260100 12005KT 4SM HZ SCT010
     FM260300 VRB03KT 2SM BR OVC005
     FM260800 00000KT 1/2SM FG OVC004
     FM261400 12003KT 1/4SM FG VV001=



000
FTUS46 KSTO 252000 AAB
TAFRBL
TAF AMD
KRBL 252027Z 2520/2618 VRB03KT 6SM BR SCT005
     FM252300 34004KT P6SM SKC
     FM260400 32003KT 6SM BR SKC
     FM260600 VRB04KT 1/2SM FG SKC
     FM260900 31006KT 1/4SM FG OVC001
     FM261600 36005KT 6SM BR SKC=



000
FTUS46 KSTO 252000 AAB
TAFMHR
TAF AMD
KMHR 252013Z 2520/2618 34004KT P6SM SKC
     FM260300 VRB02KT 5SM HZ SKC
     FM260600 VRB03KT 1SM BR SKC
     FM260800 VRB03KT 1/2SM FG BKN003
     FM261100 00000KT 1/4SM FG VV001=



000
FTUS46 KSTO 251900 AAB
TAFSAC
TAF AMD
KSAC 251936Z 2520/2618 VRB04KT P6SM SKC
     FM260200 VRB02KT 4SM BR SKC
     FM260600 VRB03KT 2SM BR BKN003
     FM260900 VRB02KT 1/2SM FG OVC001=



000
FTUS46 KSTO 251800 AAA
TAFSAC
TAF AMD
KSAC 251849Z 2519/2618 02003KT 1SM BR OVC002
     FM251900 34002KT 3SM BR BKN005
     FM252100 34002KT 4SM HZ SCT007
     FM252300 34005KT 4SM HZ SKC
     FM260600 VRB03KT 2SM BR BKN003=



000
FTUS46 KSTO 251800 AAA
TAFMHR
TAF AMD
KMHR 251849Z 2519/2618 34003KT 1SM BR OVC003
     FM251900 34004KT 3SM BR BKN005
     FM252000 VRB02KT 5SM HZ FEW007
     FM260600 VRB03KT 2SM BR BKN003=



000
FTUS46 KSTO 251800 AAB
TAFSMF
TAF AMD
KSMF 251829Z 2518/2618 02003KT 1/2SM FG VV002
     FM252000 36004KT 2SM BR OVC006
     FM252200 34005KT 5SM HZ SKC
     FM260600 VRB03KT 2SM BR SKC=



000
FTUS46 KSTO 251800 AAA
TAFSMF
TAF AMD
KSMF 251826Z 2518/2618 02003KT 1/4SM FG VV002
     FM252000 36004KT 2SM BR OVC006
     FM252200 34005KT 5SM HZ SKC
     FM260600 VRB03KT 2SM BR SKC=



000
FTUS46 KSTO 251700 RRA
TAFMHR
TAF
KMHR 251752Z 2518/2618 34003KT 1SM BR OVC003
     FM251900 34004KT 2SM BR OVC005
     FM252100 VRB02KT 3SM BR BKN007
     FM252300 VRB03KT 4SM HZ SKC
     FM260600 VRB03KT 2SM BR SKC=



000
FTUS46 KSTO 251700 RRA
TAFSCK
TAF
KSCK 251752Z 2518/2618 VRB03KT 1SM BR OVC002
     FM252000 VRB02KT 2SM BR OVC005
     FM252200 12003KT 3SM BR BKN009
     FM260000 12005KT 4SM HZ SCT010
     FM260300 VRB03KT 2SM BR OVC005=



000
FTUS46 KSTO 251700 RRA
TAFSAC
TAF
KSAC 251752Z 2518/2618 02003KT 1SM BR OVC002
     FM252000 34004KT 1SM BR OVC004
     FM252300 34005KT 4SM HZ SKC
     FM260600 VRB03KT 2SM BR SKC=



000
FTUS46 KSTO 251700 RRA
TAFSMF
TAF
KSMF 251752Z 2518/2618 02003KT 1/4SM FG VV002
     FM251900 36004KT 2SM BR OVC006
     FM252200 34005KT 5SM HZ SKC
     FM260600 VRB03KT 2SM BR SKC=



000
FTUS46 KSTO 251700 RRA
TAFRDD
TAF
KRDD 251752Z 2518/2618 VRB05KT P6SM FEW250=



000
FTUS46 KSTO 251700 RRA
TAFRBL
TAF
KRBL 251752Z 2518/2618 00000KT 1/4SM FG VV002
     FM251900 00000KT 1/2SM FG OVC004
     FM252000 VRB03KT 3SM HZ SCT005
     FM252300 34004KT P6SM SKC=



000
FTUS46 KSTO 251700 AAA
TAFRBL
TAF AMD
KRBL 251727Z 2517/2612 00000KT 1/4SM FG VV002
     FM251900 00000KT 1/2SM FG OVC004
     FM252000 VRB03KT 3SM HZ SCT005
     FM252300 34004KT P6SM SKC=



000
FTUS46 KSTO 251600 AAB
TAFSAC
TAF AMD
KSAC 251612Z 2516/2612 00000KT 1/2SM FG VV002
     FM251800 00000KT 2SM BR OVC005
     FM252100 VRB03KT 4SM HZ SKC
     FM260600 VRB03KT 2SM BR SKC=



000
FTUS46 KSTO 251500 AAB
TAFSMF
TAF AMD
KSMF 251521Z 2515/2612 VRB03KT 1/4SM FG VV002
     FM251800 15007KT 2SM BR OVC006
     FM252000 VRB05KT 5SM HZ SKC
     FM260600 VRB03KT 2SM BR SKC=



000
FTUS46 KSTO 251500 AAA
TAFSCK
TAF AMD
KSCK 251518Z 2515/2612 VRB03KT 1SM BR OVC004
     FM252000 VRB02KT 2SM BR OVC006
     FM252200 12003KT 3SM BR BKN009
     FM260000 12005KT 4SM HZ SCT010
     FM260300 VRB03KT 2SM BR OVC005=



000
FTUS46 KSTO 251500 AAA
TAFSMF
TAF AMD
KSMF 251518Z 2515/2612 VRB03KT 1/2SM FG VV002
     FM251800 15007KT 2SM BR OVC006
     FM252000 VRB05KT 5SM HZ SKC
     FM260600 VRB03KT 2SM BR SKC=



000
FTUS46 KSTO 251500 AAA
TAFSAC
TAF AMD
KSAC 251518Z 2515/2612 00000KT 1SM BR BCFG OVC003
     FM251700 00000KT 2SM BR OVC006
     FM252100 VRB03KT 4SM HZ SKC
     FM260600 VRB03KT 2SM BR SKC=



000
FTUS46 KSTO 251500 AAA
TAFMHR
TAF AMD
KMHR 251518Z 2515/2612 VRB03KT 1/4SM FG OVC002
      TEMPO 2517/2519 1SM BR OVC005
     FM252100 VRB02KT 3SM BR BKN007
     FM252200 VRB03KT 4SM HZ SKC
     FM260600 VRB03KT 2SM BR SKC=



000
FTUS46 KSTO 251500 AAA
TAFRBL
TAF AMD
KRBL 251507Z 2515/2612 00000KT 1/2SM FG VV002
     FM251700 00000KT 1SM BR OVC004
     FM251800 VRB03KT 3SM HZ SCT005
     FM251900 34004KT P6SM SKC=



000
FTUS46 KSTO 251100
TAFRBL
TAF
KRBL 251137Z 2512/2612 VRB05KT 5SM BR SKC
     FM251800 34004KT P6SM SKC=



000
FTUS46 KSTO 251100
TAFSCK
TAF
KSCK 251137Z 2512/2612 12007KT 3SM BR OVC004
      TEMPO 2512/2516 1SM BR
     FM252300 VRB02KT 5SM BR BKN007
      TEMPO 2523/2602 5SM HZ SCT010
     FM260300 VRB03KT 2SM BR OVC005=



000
FTUS46 KSTO 251100
TAFSAC
TAF
KSAC 251137Z 2512/2612 17004KT 3SM BR OVC005
      TEMPO 2512/2516 1SM BR OVC002
     FM252100 VRB03KT 4SM HZ SKC
     FM260600 VRB03KT 2SM BR SKC=



000
FTUS46 KSTO 251100
TAFSMF
TAF
KSMF 251137Z 2512/2612 15007KT 2SM BR OVC003
      TEMPO 2512/2516 1/2SM FG OVC002
     FM252000 VRB05KT 5SM HZ SKC
     FM260600 VRB03KT 2SM BR SKC=



000
FTUS46 KSTO 251100
TAFRDD
TAF
KRDD 251137Z 2512/2612 VRB05KT P6SM FEW250=



000
FTUS46 KSTO 251100
TAFMHR
TAF
KMHR 251137Z 2512/2612 17004KT 3SM BR OVC005
      TEMPO 2512/2516 1SM BR OVC002
     FM252100 VRB03KT 4SM HZ SKC
     FM260600 VRB03KT 2SM BR SKC=



000
FTUS46 KSTO 250500
TAFRDD
TAF
KRDD 250535Z 2506/2606 35007KT P6SM FEW250=



000
FTUS46 KSTO 250500
TAFSMF
TAF
KSMF 250535Z 2506/2606 15007KT 1SM BR OVC003
      TEMPO 2506/2508 1/4SM FG OVC002
     FM250800 00000KT 1/4SM FG VV001
     FM251930 VRB03KT 1SM BR BCFG BKN003
     FM252100 VRB03KT 5SM HZ SKC
     FM260300 VRB03KT 2SM BR SKC=



000
FTUS46 KSTO 250500
TAFSCK
TAF
KSCK 250535Z 2506/2606 11004KT 1 1/2SM BR OVC003
     FM250900 VRB03KT 1/2SM FG VV001
     FM251900 VRB03KT 1SM BR BCFG OVC004
     FM252300 VRB02KT 4SM BR BKN007
      TEMPO 2523/2602 5SM HZ SCT010
     FM260300 VRB03KT 2SM BR OVC005=



000
FTUS46 KSTO 250500
TAFMHR
TAF
KMHR 250535Z 2506/2606 13004KT 1/4SM FG VV001
     FM251800 VRB03KT 1SM BR BCFG BKN004
     FM252000 VRB03KT 5SM HZ SKC
     FM260300 VRB03KT 2SM BR SKC
      AMD NOT SKED=



000
FTUS46 KSTO 250500
TAFRBL
TAF
KRBL 250535Z 2506/2606 33005KT P6SM SKC
     FM251500 34005KT P6SM SCT005
      TEMPO 2515/2518 4SM BR BKN003
     FM251800 35008KT P6SM FEW250=



000
FTUS46 KSTO 250500
TAFSAC
TAF
KSAC 250535Z 2506/2606 17004KT 2SM BR OVC003
      TEMPO 2506/2508 1SM BR OVC002
     FM250800 00000KT 1/4SM FG VV001
     FM251900 VRB03KT 1SM BR BCFG BKN004
     FM252100 VRB03KT 4SM HZ SKC
     FM260300 VRB03KT 2SM BR SKC=



000
FTUS46 KSTO 250400 AAB
TAFMHR
TAF AMD
KMHR 250414Z 2504/2524 13005KT 1/2SM FG OVC002
      TEMPO 2505/2507 1/4SM FG VV001
     FM250700 00000KT 1/4SM FG VV001
     FM251900 VRB02KT 2SM BR BCFG BKN004
     FM252000 VRB02KT 5SM HZ SKC=



000
FTUS46 KSTO 250400 AAB
TAFSMF
TAF AMD
KSMF 250414Z 2504/2524 19007KT 2SM BR OVC003
      TEMPO 2504/2506 1/2SM FG OVC002
     FM250700 00000KT 1/4SM FG VV001
     FM251800 VRB02KT 1SM BR BCFG BKN003
     FM252000 VRB02KT 5SM HZ SKC=



000
FTUS46 KSTO 250100 AAA
TAFSMF
TAF AMD
KSMF 250153Z 2502/2524 18007KT P6SM SCT006
     FM250300 15005KT 3SM BR OVC006
     FM250700 00000KT 1/4SM FG VV001
     FM251800 VRB02KT 1SM BR BCFG BKN003
     FM252000 VRB02KT 5SM HZ SKC=



000
FTUS46 KSTO 250100 AAA
TAFSAC
TAF AMD
KSAC 250153Z 2502/2524 13004KT 4SM BR BKN007
     FM250400 VRB02KT 2SM BR OVC005
     FM250600 00000KT 1/4SM FG VV001
     FM251900 VRB02KT 1SM BR BCFG BKN004
     FM252000 VRB02KT 4SM HZ SKC=



000
FTUS46 KSTO 250100 AAA
TAFMHR
TAF AMD
KMHR 250153Z 2502/2524 17006KT P6SM SCT006
     FM250300 15005KT 3SM BR OVC006
     FM250500 VRB02KT 2SM BR OVC005
     FM250700 00000KT 1/4SM FG VV001
     FM251900 VRB02KT 2SM BR BCFG BKN004
     FM252000 VRB02KT 5SM HZ SKC=



000
FTUS46 KSTO 250100 AAA
TAFSCK
TAF AMD
KSCK 250153Z 2502/2524 11006KT 4SM BR BKN008
     FM250400 VRB03KT 2SM BR OVC005
     FM250600 VRB03KT 1/2SM FG VV001
     FM251900 VRB02KT 2SM BR BCFG OVC004
     FM252300 VRB02KT 4SM BR BKN007=



000
FTUS46 KSTO 250100 AAA
TAFSMF
TAF AMD
KSMF 250153Z 2502/2524 18007KT P6SM SCT006
     FM250300 15005KT 3SM BR OVC006
     FM250700 00000KT 1/4SM FG VV001
     FM251800 VRB02KT 1SM BR BCFG BKN003
     FM252000 VRB02KT 5SM HZ SKC=



000
FTUS46 KSTO 250100 AAA
TAFSAC
TAF AMD
KSAC 250153Z 2502/2524 13004KT 4SM BR BKN007
     FM250400 VRB02KT 2SM BR OVC005
     FM250600 00000KT 1/4SM FG VV001
     FM251900 VRB02KT 1SM BR BCFG BKN004
     FM252000 VRB02KT 4SM HZ SKC=



000
FTUS46 KSTO 250100 AAA
TAFMHR
TAF AMD
KMHR 250153Z 2502/2524 17006KT P6SM SCT006
     FM250300 15005KT 3SM BR OVC006
     FM250500 VRB02KT 2SM BR OVC005
     FM250700 00000KT 1/4SM FG VV001
     FM251900 VRB02KT 2SM BR BCFG BKN004
     FM252000 VRB02KT 5SM HZ SKC=



000
FTUS46 KSTO 250100 AAA
TAFSCK
TAF AMD
KSCK 250153Z 2502/2524 11006KT 4SM BR BKN008
     FM250400 VRB03KT 2SM BR OVC005
     FM250600 VRB03KT 1/2SM FG VV001
     FM251900 VRB02KT 2SM BR BCFG OVC004
     FM252300 VRB02KT 4SM BR BKN007=



000
FTUS46 KSTO 242300 RRA
TAFSMF
TAF
KSMF 242347Z 2500/2524 14003KT 6SM HZ SKC
     FM250500 14003KT 2SM BR FEW002
     FM250700 00000KT 1/4SM FG VV001
     FM251800 VRB02KT 1SM BR BCFG BKN003
     FM252000 VRB02KT 5SM HZ SKC=



000
FTUS46 KSTO 242300 RRA
TAFSAC
TAF
KSAC 242347Z 2500/2524 14004KT 6SM HZ SKC
     FM250400 VRB02KT 2SM BR SCT002
     FM250600 00000KT 1/4SM FG VV001
     FM251900 VRB02KT 1SM BR BCFG BKN004
     FM252000 VRB02KT 4SM HZ SKC=



000
FTUS46 KSTO 242300 RRA
TAFSCK
TAF
KSCK 242347Z 2500/2524 15003KT 5SM HZ SCT008
     FM250200 VRB03KT 2SM BR SCT004
     FM250600 VRB03KT 1/2SM FG VV001
     FM251900 VRB02KT 2SM BR BCFG OVC004
     FM252300 VRB02KT 4SM BR BKN007=



000
FTUS46 KSTO 242300 RRA
TAFRDD
TAF
KRDD 242347Z 2500/2524 35007KT P6SM SKC=



000
FTUS46 KSTO 242300 RRA
TAFMHR
TAF
KMHR 242347Z 2500/2524 15003KT 6SM HZ SKC
     FM250500 VRB02KT 2SM BR SCT002
     FM250700 00000KT 1/4SM FG VV001
     FM251900 VRB02KT 2SM BR BCFG BKN004
     FM252000 VRB02KT 5SM HZ SKC=



000
FTUS46 KSTO 242300 RRA
TAFRBL
TAF
KRBL 242347Z 2500/2524 35009KT P6SM SKC=



000
FTUS46 KSTO 242100 AAA
TAFMHR
TAF AMD
KMHR 242147Z 2422/2518 15003KT 5SM HZ BKN006
     FM242300 15003KT 6SM HZ FEW010
     FM250400 VRB04KT 2SM BR SKC
     FM250600 VRB04KT 1/4SM FG VV003=



000
FTUS46 KSTO 242100 AAA
TAFSAC
TAF AMD
KSAC 242142Z 2422/2518 00000KT 4SM HZ OVC008
     FM242230 36005KT 6SM HZ FEW010
     FM250300 VRB04KT 3SM BR SKC
     FM250600 VRB04KT 1/4SM FG VV003=



000
FTUS46 KSTO 242100 AAA
TAFSCK
TAF AMD
KSCK 242134Z 2422/2518 VRB03KT 2SM BR OVC002
     FM242300 VRB03KT 3SM HZ SCT004
     FM250200 VRB03KT 2SM BR BKN003
     FM251000 VRB03KT 1/2SM FG VV002=



000
FTUS46 KSTO 242100 AAA
TAFSCK
TAF AMD
KSCK 242134Z 2422/2518 VRB03KT 2SM BR OVC002
     FM242300 VRB03KT 3SM HZ SCT004
     FM250200 VRB03KT 2SM BR BKN003
     FM251000 VRB03KT 1/2SM FG VV002=



000
FTUS46 KSTO 241900 AAA
TAFSMF
TAF AMD
KSMF 241907Z 2419/2518 00000KT 3SM BR OVC008
     FM242000 VRB03KT 4SM HZ BKN008
     FM242100 34006KT 5SM HZ FEW009
     FM242300 34005KT P6SM SKC
     FM250300 VRB04KT 2SM BR SKC
     FM250600 VRB04KT 1/4SM FG VV003=



000
FTUS46 KSTO 241700
TAFRBL
TAF
KRBL 241740Z 2418/2518 33010KT P6SM SKC=



000
FTUS46 KSTO 241700
TAFSAC
TAF
KSAC 241740Z 2418/2518 00000KT 2SM BR BCFG OVC004
     FM241900 VRB03KT 3SM BR OVC006
     FM242000 36005KT 4SM HZ SKC
     FM242200 36005KT P6SM SKC
     FM250300 VRB04KT 2SM BR SKC
     FM250500 VRB04KT 1/4SM FG VV003=



000
FTUS46 KSTO 241700
TAFSMF
TAF
KSMF 241740Z 2418/2518 00000KT 1/2SM FG OVC002
     FM241900 VRB03KT 1 1/2SM BR BKN004
     FM242100 34006KT 3SM HZ SKC
     FM242300 34005KT P6SM SKC
     FM250300 VRB04KT 2SM BR SKC
     FM250600 VRB04KT 1/4SM FG VV003=



000
FTUS46 KSTO 241700
TAFSCK
TAF
KSCK 241740Z 2418/2518 VRB03KT 1/2SM FG OVC002
     FM241900 VRB03KT 2SM BR OVC004
     FM242100 VRB03KT 3SM HZ SCT005
     FM250300 VRB03KT 2SM BR BKN005
     FM251000 VRB03KT 1/2SM FG VV002=



000
FTUS46 KSTO 241700
TAFMHR
TAF
KMHR 241740Z 2418/2518 00000KT 1/2SM FG OVC003
     FM241900 VRB03KT 1 1/2SM BR BKN005
     FM242000 33004KT 2SM HZ SKC
     FM242200 33004KT P6SM SKC
     FM250300 VRB04KT 2SM BR SKC
     FM250500 VRB04KT 1/4SM FG VV003=



000
FTUS46 KSTO 241700
TAFRDD
TAF
KRDD 241740Z 2418/2518 35009KT P6SM SKC=



000
FTUS46 KSTO 241600 AAA
TAFSCK
TAF AMD
KSCK 241623Z 2416/2512 VRB03KT 1/2SM FG OVC002
     FM242100 VRB03KT 3SM HZ SCT005
     FM250300 VRB03KT 2SM BR BKN005
     FM251000 VRB03KT 1/2SM FG VV002=



000
FTUS46 KSTO 241600 AAA
TAFMHR
TAF AMD
KMHR 241623Z 2416/2512 VRB03KT 1/2SM FG OVC003
     FM242000 33004KT 2SM HZ SKC
     FM242200 33004KT P6SM SKC
     FM250300 VRB04KT 2SM BR SKC
     FM250500 VRB04KT 1/4SM FG VV003=



000
FTUS46 KSTO 241600 AAA
TAFSAC
TAF AMD
KSAC 241623Z 2416/2512 VRB03KT 1SM BCFG OVC002
     FM242000 36005KT 2SM HZ SKC
     FM242200 36005KT P6SM SKC
     FM250300 VRB04KT 2SM BR SKC
     FM250500 VRB04KT 1/4SM FG VV003=



000
FTUS46 KSTO 241100
TAFSCK
TAF
KSCK 241133Z 2412/2512 14006KT 1SM BR OVC002
     FM241300 VRB03KT 1/4SM FG OVC002
     FM242100 VRB03KT 3SM HZ SCT005
     FM250300 VRB03KT 2SM BR BKN005
     FM251000 VRB03KT 1/2SM FG VV002=



000
FTUS46 KSTO 241100
TAFSAC
TAF
KSAC 241133Z 2412/2512 VRB03KT 1/4SM FG VV002
     FM242000 36005KT 2SM HZ SKC
     FM242200 36005KT P6SM SKC
     FM250300 VRB04KT 2SM BR SKC
     FM250500 VRB04KT 1/4SM FG VV003=



000
FTUS46 KSTO 241100
TAFRBL
TAF
KRBL 241133Z 2412/2512 VRB05KT P6SM FEW250
     FM241500 33007KT P6SM FEW250
     FM250300 VRB03KT P6SM SKC=



000
FTUS46 KSTO 241100
TAFMHR
TAF
KMHR 241133Z 2412/2512 VRB03KT 1/4SM FG VV002
     FM242000 33004KT 2SM HZ SKC
     FM242200 33004KT P6SM SKC
     FM250300 VRB04KT 2SM BR SKC
     FM250500 VRB04KT 1/4SM FG VV003=



000
FTUS46 KSTO 241100
TAFRDD
TAF
KRDD 241133Z 2412/2512 VRB05KT P6SM FEW250
     FM241500 35007KT P6SM FEW250
     FM250300 VRB03KT P6SM SKC=



000
FTUS46 KSTO 241100
TAFSMF
TAF
KSMF 241133Z 2412/2512 VRB03KT 1/4SM FG VV002
     FM242100 34006KT 2SM HZ SKC
     FM242300 34005KT P6SM SKC
     FM250300 VRB04KT 2SM BR SKC
     FM250600 VRB04KT 1/4SM FG VV003=



000
FTUS46 KSTO 240500
TAFRDD
TAF
KRDD 240536Z 2406/2506 36007KT P6SM FEW250=



000
FTUS46 KSTO 240500
TAFSCK
TAF
KSCK 240536Z 2406/2506 VRB03KT 2SM BR OVC003
      TEMPO 2406/2408 1/4SM FG OVC001
     FM240800 VRB03KT 1/4SM FG OVC001
     FM242100 VRB03KT 3SM HZ SKC
     FM250300 VRB03KT 2SM BR SKC=



000
FTUS46 KSTO 240500
TAFRBL
TAF
KRBL 240536Z 2406/2506 35009KT P6SM FEW250=



000
FTUS46 KSTO 240500
TAFMHR
TAF
KMHR 240536Z 2406/2506 00000KT 1/4SM FG OVC001
     FM242000 VRB03KT 5SM HZ SKC
     FM250300 VRB03KT 1 1/2SM BR SKC=



000
FTUS46 KSTO 240500
TAFSMF
TAF
KSMF 240536Z 2406/2506 VRB03KT 2SM BR BKN005
      TEMPO 2406/2408 1/4SM FG OVC002
     FM240800 00000KT 1/4SM FG VV001
     FM242100 34006KT 5SM HZ SKC
     FM250300 VRB04KT 2SM BR SKC=



000
FTUS46 KSTO 240500
TAFSAC
TAF
KSAC 240536Z 2406/2506 14005KT 1/4SM FG VV001
      TEMPO 2406/2408 1/2SM FG OVC002
     FM240800 00000KT 1/4SM FG VV001
     FM242100 VRB03KT 4SM HZ SCT003
     FM250300 VRB03KT 2SM BR SKC=



000
FTUS46 KSTO 240400 AAD
TAFSAC
TAF AMD
KSAC 240447Z 2405/2424 14006KT 1/4SM FG VV002
      TEMPO 2406/2408 1/2SM FG OVC005
     FM240800 VRB03KT 1/4SM FG VV001
     FM242100 VRB03KT 4SM HZ SCT003=



000
FTUS46 KSTO 240400 AAC
TAFSAC
TAF AMD
KSAC 240422Z 2404/2424 16003KT 1 1/2SM BR BKN006
      TEMPO 2406/2408 1/2SM FG OVC005
     FM240800 VRB03KT 1/4SM FG VV001
     FM242100 VRB03KT 4SM HZ SCT003=



000
FTUS46 KSTO 240300 AAC
TAFMHR
TAF AMD
KMHR 240351Z 2404/2424 19003KT 1/4SM FG OVC001
      TEMPO 2404/2407 1/2SM FG OVC002
     FM240700 00000KT 1/4SM FG OVC001
     FM242000 VRB03KT 5SM HZ FEW250=



000
FTUS46 KSTO 240300 AAC
TAFMHR
TAF AMD
KMHR 240351Z 2404/2424 19003KT 1/4SM FG OVC001
      TEMPO 2404/2407 1/2SM FG OVC002
     FM240700 00000KT 1/4SM FG OVC001
     FM242000 VRB03KT 5SM HZ FEW250=



000
FTUS46 KSTO 240200 AAB
TAFSCK
TAF AMD
KSCK 240256Z 2403/2424 11005KT 2SM BR SCT006
     FM240400 VRB03KT 1SM BR OVC006
     FM240900 VRB03KT 1/4SM FG OVC001
     FM242100 VRB03KT 3SM HZ FEW250=



000
FTUS46 KSTO 240200 AAB
TAFMHR
TAF AMD
KMHR 240256Z 2403/2424 17005KT 3SM BR SCT006
      TEMPO 2403/2406 1SM BR OVC006
     FM240700 00000KT 1/4SM FG OVC001
     FM242000 VRB03KT 5SM HZ FEW250=



000
FTUS46 KSTO 240200 AAB
TAFSAC
TAF AMD
KSAC 240256Z 2403/2424 15004KT 5SM HZ SKC
     FM240400 VRB03KT 3SM BR OVC006
     FM240800 VRB03KT 1/4SM FG VV001
     FM242100 VRB03KT 4SM HZ SCT003=



000
FTUS46 KSTO 240100 AAA
TAFMHR
TAF AMD
KMHR 240155Z 2402/2424 17005KT 3SM BR SKC
      TEMPO 2403/2406 1SM BR
     FM240700 00000KT 1/4SM FG OVC001
     FM242000 VRB03KT 5SM HZ FEW250=



000
FTUS46 KSTO 240100 AAA
TAFSAC
TAF AMD
KSAC 240145Z 2402/2424 17005KT 4SM HZ SKC
     FM240800 VRB03KT 1/4SM FG VV001
     FM242100 VRB03KT 4SM HZ SCT003=



000
FTUS46 KSTO 240100 AAA
TAFSCK
TAF AMD
KSCK 240145Z 2402/2424 09005KT 2SM BR SKC
     FM240900 VRB03KT 1/4SM FG OVC001
     FM242100 VRB03KT 3SM HZ FEW250=



000
FTUS46 KSTO 232300
TAFRDD
TAF
KRDD 232320Z 2400/2424 36007KT P6SM FEW250=



000
FTUS46 KSTO 232300
TAFSMF
TAF
KSMF 232320Z 2400/2424 VRB03KT P6SM FEW250
     FM240400 VRB04KT 4SM BR FEW250
     FM240800 VRB04KT 1/4SM FG VV001
     FM242100 VRB04KT 4SM HZ SCT003=



000
FTUS46 KSTO 232300
TAFSAC
TAF
KSAC 232320Z 2400/2424 VRB03KT P6SM FEW250
     FM240400 VRB04KT 4SM BR FEW250
     FM240800 VRB03KT 1/4SM FG VV001
     FM242100 VRB03KT 4SM HZ SCT003=



000
FTUS46 KSTO 232300
TAFSCK
TAF
KSCK 232320Z 2400/2424 30006KT 6SM HZ FEW250
     FM240400 VRB04KT 4SM BR FEW250
     FM240900 VRB03KT 1/4SM FG OVC001
     FM242100 VRB03KT 3SM HZ FEW250=



000
FTUS46 KSTO 232300
TAFRBL
TAF
KRBL 232320Z 2400/2424 35009KT P6SM FEW250=



000
FTUS46 KSTO 232300
TAFMHR
TAF
KMHR 232320Z 2400/2424 34007KT P6SM FEW250
     FM240400 VRB03KT 4SM BR FEW250
     FM241000 VRB03KT 1/4SM FG OVC001
     FM242000 VRB03KT 5SM HZ FEW250=



000
FTUS46 KSTO 232000 AAA
TAFSMF
TAF AMD
KSMF 232001Z 2320/2418 VRB04KT 3/4SM BR VV002
     FM232100 33005KT 2SM BR BKN006
     FM232300 34006KT 6SM BR FEW007 SCT250
     FM240400 VRB04KT 4SM BR BKN250
     FM240800 VRB04KT 1/4SM FG OVC001=



000
FTUS46 KSTO 231900 AAA
TAFSAC
TAF AMD
KSAC 231938Z 2320/2418 VRB02KT 2SM BR OVC004
     FM232100 32005KT 4SM BR BKN012
     FM232200 32005KT 6SM BR SCT250
     FM240400 VRB04KT 4SM BR BKN250
     FM240800 VRB03KT 1/4SM FG OVC001=



000
FTUS46 KSTO 231900 AAB
TAFMHR
TAF AMD
KMHR 231913Z 2319/2418 VRB03KT 2SM BR OVC006
     FM232030 31005KT 3SM BR BKN009
     FM232100 33005KT 6SM BR FEW007 SCT250
     FM232200 34007KT P6SM SCT250
     FM240400 VRB03KT 4SM BR BKN250=



000
FTUS46 KSTO 231900 AAA
TAFSCK
TAF AMD
KSCK 231902Z 2319/2418 VRB04KT 1/2SM FG VV002
     FM232100 30005KT 2SM BR BKN003
     FM232300 30006KT 6SM HZ SCT250
     FM240400 VRB04KT 4SM BR BKN250
     FM240700 VRB03KT 1/4SM FG BKN002=



000
FTUS46 KSTO 231700 AAA
TAFMHR
TAF AMD
KMHR 231730Z 2318/2412 VRB03KT 1 1/2SM BR BKN003 OVC008
     FM231830 32005KT 3SM BR BKN009
     FM232000 33005KT 6SM BR FEW007 SCT250
     FM232200 34007KT P6SM SCT250
     FM240400 VRB03KT 4SM BR BKN250=



000
FTUS46 KSTO 231700
TAFSMF
TAF
KSMF 231726Z 2318/2418 VRB04KT 1/4SM FG VV001
     FM232000 33005KT 2SM BR BKN003
     FM232200 34006KT 6SM BR FEW007 SCT250
     FM240400 VRB04KT 4SM BR BKN250
     FM240800 VRB04KT 1/4SM FG OVC001=



000
FTUS46 KSTO 231700
TAFRDD
TAF
KRDD 231726Z 2318/2418 VRB03KT P6SM SCT250
     FM232000 36010KT P6SM SCT250
     FM240300 34005KT P6SM FEW250=



000
FTUS46 KSTO 231700
TAFRBL
TAF
KRBL 231726Z 2318/2418 34012KT P6SM SCT250
     FM240300 34007KT P6SM FEW250=



000
FTUS46 KSTO 231700
TAFSAC
TAF
KSAC 231726Z 2318/2418 VRB02KT 2SM BR OVC004
      TEMPO 2318/2320 1/2SM FG OVC002
     FM232000 32005KT 3SM BR BKN003
     FM232200 32005KT 6SM BR FEW007 SCT250
     FM240400 VRB04KT 4SM BR BKN250
     FM240800 VRB03KT 1/4SM FG OVC001=



000
FTUS46 KSTO 231700
TAFMHR
TAF
KMHR 231726Z 2318/2418 VRB03KT 3/4SM BR OVC004
      TEMPO 2318/2320 1/4SM FG OVC002
     FM232000 33005KT 3SM BR BKN003
     FM232200 33005KT 6SM BR FEW007 SCT250
     FM240400 VRB03KT 4SM BR BKN250
     FM240700 VRB03KT 1/4SM FG OVC001=



000
FTUS46 KSTO 231700
TAFSCK
TAF
KSCK 231726Z 2318/2418 VRB04KT 1/4SM FG VV001
     FM232100 30005KT 2SM BR BKN003
     FM232300 30006KT 6SM HZ SCT250
     FM240400 VRB04KT 4SM BR BKN250
     FM240700 VRB03KT 1/4SM FG BKN002=



000
FTUS46 KSTO 231500 AAA
TAFSAC
TAF AMD
KSAC 231516Z 2315/2412 VRB02KT 1 1/2SM BR OVC003
      TEMPO 2316/2317 1/4SM FG VV001
     FM231800 32005KT 3SM BR BKN003
     FM232000 32005KT 6SM BR FEW007 SCT250
     FM232200 32006KT P6SM SCT250
     FM240400 VRB04KT 4SM BR BKN250
     FM240800 VRB03KT 1/4SM FG OVC001=



000
FTUS46 KSTO 231100 CCA
TAFSCK
TAF COR
KSCK 231132Z 2312/2412 VRB04KT 1/4SM FG VV001
     FM231900 30005KT 1SM BR BKN003
     FM232100 30006KT 6SM HZ SCT250
     FM240400 VRB04KT 4SM BR BKN250
     FM240800 VRB03KT 1/2SM FG BKN002=



000
FTUS46 KSTO 231100
TAFMHR
TAF
KMHR 231120Z 2312/2412 VRB03KT 1/4SM FG OVC001
     FM231800 33005KT 2SM BR BKN003
     FM232000 33005KT 6SM BR FEW007 SCT250
     FM232200 34007KT P6SM SCT250
     FM240400 VRB03KT 4SM BR BKN250=



000
FTUS46 KSTO 231100
TAFSMF
TAF
KSMF 231120Z 2312/2412 VRB04KT 1/4SM FG VV001
     FM231800 33005KT 2SM BR BKN003
     FM232000 34006KT 6SM BR FEW007 SCT250
     FM232200 34007KT P6SM SCT250
     FM240400 VRB04KT 4SM BR BKN250
     FM240800 VRB04KT 1/4SM FG OVC001=



000
FTUS46 KSTO 231100
TAFSCK
TAF
KSCK 231120Z 2312/2412 VRB04KT 3SM BR FEW005
      TEMPO 2313/2317 1/2SM FG BKN005
     FM232100 30006KT 6SM HZ SCT250
     FM240400 VRB04KT 4SM BR BKN250
     FM240800 VRB03KT 1/2SM FG BKN002=



000
FTUS46 KSTO 231100
TAFSAC
TAF
KSAC 231120Z 2312/2412 VRB03KT 1/4SM FG VV001
     FM231800 32005KT 2SM BR BKN003
     FM232000 32005KT 6SM BR FEW007 SCT250
     FM232200 32006KT P6SM SCT250
     FM240400 VRB04KT 4SM BR BKN250
     FM240800 VRB03KT 1/4SM FG OVC001=



000
FTUS46 KSTO 231100
TAFRBL
TAF
KRBL 231120Z 2312/2412 35006KT P6SM BKN250
     FM231800 35012KT P6SM SCT250
     FM240300 34007KT P6SM FEW250=



000
FTUS46 KSTO 231100
TAFRDD
TAF
KRDD 231120Z 2312/2412 VRB04KT P6SM BKN250
     FM232000 36010KT P6SM SCT250
     FM240300 34005KT P6SM FEW250=



000
FTUS46 KSTO 230800 AAB
TAFSMF
TAF AMD
KSMF 230832Z 2309/2406 VRB04KT 1/2SM FG BCFG VV003
      TEMPO 2309/2313 1/4SM FG VV001
     FM231300 VRB03KT 1/4SM FG BCFG VV001
     FM231800 33005KT 2SM BR BKN003
     FM232000 34006KT 6SM BR SCT250
     FM232200 34007KT P6SM SCT250
     FM240400 VRB04KT 6SM BR BKN250=



000
FTUS46 KSTO 230700 AAB
TAFSAC
TAF AMD
KSAC 230702Z 2307/2406 VRB04KT 1SM BR VV007
      TEMPO 2307/2311 1/2SM FG VV005
     FM231100 VRB03KT 1/2SM FG VV003
     FM231400 VRB03KT 1/4SM FG VV001
     FM231800 32005KT 2SM BR BKN003
     FM232000 32005KT P6SM SCT250
     FM232200 32006KT P6SM SCT250
     FM240400 VRB04KT 4SM BR BKN250=



    US Dept of Commerce
    National Oceanic and Atmospheric Administration
    National Weather Service
    1325 East West Highway
    Silver Spring, MD 20910
    Page Author: NWS Internet Services Team
Disclaimer
Information Quality
Credits
Glossary
Privacy Policy
Freedom of Information Act (FOIA)
About Us
Career Opportunities